King, North Carolina
Current Conditions -  °F | °C
As of 4:54 PM on Monday 26 Jan 2015 (Local Time) from KINT Reporting Station
Overcast Overcast  
Wind Chill: 44°   Ceiling: 5000
Heat Index: 46°   Visibility: 10mi
Dew Point: 38°   Wind: 5mph
Humidity: 73%   Direction: 40°NE
Pressure: 29.63"   Gusts: NA
Location:  36.28°N, 80.36°W
Report Text: KINT 262154Z 04004KT 10SM SCT031 SCT045 OVC050 08/03 A2963 RMK AO2 RAB30E51 SLP034 P0000 T00780033
Loading
Personal Weather Stations






























Interactive Weather Map New forecast layout! Learn more

10-Day Weather Forecast

Advertisements
Track Severe Weather on mobile